CheckWX is a tool to help pilots better visualize weather data.  It is not intended as a substitute for an official pre-flight weather briefing.

02:10:32 UTC

KBML METAR
Berlin Regional Airport
Berlin, New Hampshire, USA
Current

19 mins ago

KBML 180152Z AUTO 00000KT 10SM CLR M14/M16 A3000 RMK AO2 SLP187 T11441161
Observed
Feb-18 @ 01:52 UTC
Visibility
10 SM
Flight Rules
VFR
Cloud Levels
  • Clear skies
Temperature
-14°C / 7°F
Dewpoint
-16°C / 3°F
Humidity
85%
Altimeter
30" Hg
Pressure
1018.7 hPa
Previous

1 hour ago

KBML 180052Z AUTO 00000KT 10SM CLR M14/M17 A2999 RMK AO2 SLP187 T11391167
Observed
Feb-18 @ 00:52 UTC
Visibility
10 SM
Flight Rules
VFR
Cloud Levels
  • Clear skies
Temperature
-14°C / 7°F
Dewpoint
-17°C / 1°F
Humidity
78%
Altimeter
29.99" Hg
Pressure
1018.7 hPa
Previous

2 hours ago

KBML 172352Z AUTO 00000KT 10SM CLR M11/M15 A2999 RMK AO2 SLP187 T11111150 11039 21111 56009
Observed
Feb-17 @ 23:52 UTC
Visibility
10 SM
Flight Rules
VFR
Cloud Levels
  • Clear skies
Temperature
-11°C / 12°F
Dewpoint
-15°C / 5°F
Humidity
73%
Altimeter
29.99" Hg
Pressure
1018.7 hPa